createdAt,value
2022-12-08T00:02:16.150Z,3.30
2022-12-08T00:05:22.135Z,3.33
2022-12-08T00:08:43.488Z,3.34
2022-12-08T00:11:31.542Z,3.43
2022-12-08T00:14:20.062Z,3.38
2022-12-08T00:17:11.738Z,3.35
2022-12-08T00:19:59.669Z,3.31
2022-12-08T00:22:47.604Z,3.26
2022-12-08T00:25:37.244Z,3.39
2022-12-08T00:28:25.177Z,3.27
2022-12-08T00:31:13.620Z,3.29
2022-12-08T00:34:03.198Z,3.20
2022-12-08T00:36:51.154Z,3.29
2022-12-08T00:39:39.103Z,3.30
2022-12-08T00:42:27.045Z,3.23
2022-12-08T00:45:15.096Z,3.21
2022-12-08T00:48:03.041Z,3.21
2022-12-08T00:50:52.385Z,3.08
2022-12-08T00:53:40.349Z,2.93
2022-12-08T00:56:28.415Z,3.17
2022-12-08T00:59:16.875Z,3.22
2022-12-08T01:02:04.875Z,3.05
2022-12-08T01:04:52.868Z,3.05
2022-12-08T01:07:42.128Z,3.01
2022-12-08T01:10:30.099Z,3.16
2022-12-08T01:13:18.047Z,2.99
2022-12-08T01:16:06.551Z,3.05
2022-12-08T01:18:55.435Z,2.73
2022-12-08T01:21:44.809Z,2.85
2022-12-08T01:24:34.052Z,3.08
2022-12-08T01:27:21.998Z,3.03
2022-12-08T01:30:11.140Z,3.05
2022-12-08T01:32:59.249Z,3.03
2022-12-08T01:35:47.173Z,2.94
2022-12-08T01:38:35.096Z,2.99
2022-12-08T01:41:26.521Z,2.94
2022-12-08T01:44:56.575Z,2.95
2022-12-08T01:47:50.644Z,3.01
2022-12-08T01:50:40.860Z,3.01
2022-12-08T01:53:33.622Z,2.95
2022-12-08T01:56:28.862Z,2.79
2022-12-08T01:59:18.434Z,2.81
2022-12-08T02:02:12.480Z,2.96
2022-12-08T02:05:01.069Z,2.75
2022-12-08T02:07:50.300Z,2.80
2022-12-08T02:10:40.611Z,2.65
2022-12-08T02:13:29.948Z,2.65
2022-12-08T02:16:36.255Z,2.74
2022-12-08T02:19:45.306Z,2.74
2022-12-08T02:22:41.735Z,2.89
2022-12-08T02:25:41.518Z,2.86
2022-12-08T02:28:54.719Z,2.78
2022-12-08T02:31:58.949Z,2.96
2022-12-08T02:34:54.143Z,2.75
2022-12-08T02:37:49.555Z,2.71
2022-12-08T02:40:44.600Z,2.76
2022-12-08T02:43:40.412Z,2.80
2022-12-08T02:46:33.560Z,2.72
2022-12-08T02:49:21.508Z,2.69
2022-12-08T02:52:41.382Z,2.77
2022-12-08T02:55:35.279Z,2.76
2022-12-08T02:58:49.335Z,2.75
2022-12-08T03:01:58.819Z,2.62
2022-12-08T03:04:54.172Z,2.61
2022-12-08T03:07:48.550Z,2.61
2022-12-08T03:10:42.175Z,2.02
2022-12-08T03:13:37.056Z,2.60
2022-12-08T03:16:27.410Z,2.53
2022-12-08T03:19:20.023Z,2.63
2022-12-08T03:22:08.473Z,2.72
2022-12-08T03:24:57.851Z,2.63
2022-12-08T03:27:45.931Z,2.68
2022-12-08T03:30:38.967Z,2.72
2022-12-08T03:33:31.928Z,2.68
2022-12-08T03:36:20.752Z,2.76
2022-12-08T03:39:08.677Z,2.68
2022-12-08T03:41:57.925Z,2.59
2022-12-08T03:44:45.878Z,2.70
2022-12-08T03:47:33.891Z,2.55
2022-12-08T03:50:21.860Z,2.78
2022-12-08T03:53:09.837Z,2.49
2022-12-08T03:55:57.793Z,2.68
2022-12-08T03:58:47.115Z,2.65
2022-12-08T04:01:35.193Z,2.69
2022-12-08T04:04:23.177Z,2.63
2022-12-08T04:07:11.417Z,2.71
2022-12-08T04:09:59.477Z,2.77
2022-12-08T04:12:47.393Z,2.73
2022-12-08T04:15:36.695Z,2.72
2022-12-08T04:18:24.645Z,2.71
2022-12-08T04:21:12.979Z,2.60
2022-12-08T04:24:01.590Z,2.55
2022-12-08T04:26:50.597Z,2.47
2022-12-08T04:29:38.544Z,2.59
2022-12-08T04:32:27.832Z,2.64
2022-12-08T04:35:15.752Z,2.53
2022-12-08T04:38:04.172Z,2.49
2022-12-08T04:40:52.150Z,2.68
2022-12-08T04:43:41.042Z,2.66
2022-12-08T04:46:29.010Z,2.69
2022-12-08T04:49:18.280Z,2.63
2022-12-08T04:52:06.491Z,2.75
2022-12-08T04:54:54.389Z,2.63
2022-12-08T04:57:42.328Z,2.58
2022-12-08T05:00:30.227Z,2.43
2022-12-08T05:03:22.519Z,2.34
2022-12-08T05:06:16.425Z,2.35
2022-12-08T05:09:04.707Z,2.38
2022-12-08T05:11:52.607Z,2.51
2022-12-08T05:14:40.486Z,2.51
2022-12-08T05:17:28.464Z,2.49
2022-12-08T05:20:16.452Z,2.54
2022-12-08T05:23:05.770Z,2.55
2022-12-08T05:25:53.675Z,2.64
2022-12-08T05:28:42.984Z,2.63
2022-12-08T05:31:31.802Z,2.52
2022-12-08T05:34:19.993Z,2.46
2022-12-08T05:37:07.908Z,2.41
2022-12-08T05:39:59.154Z,2.50
2022-12-08T05:42:47.040Z,2.02
2022-12-08T05:45:35.258Z,2.41
2022-12-08T05:48:23.181Z,2.40
2022-12-08T05:51:19.526Z,2.33
2022-12-08T05:54:07.460Z,2.24
2022-12-08T05:56:56.906Z,2.35
2022-12-08T05:59:44.901Z,2.33
2022-12-08T06:02:32.925Z,2.26
2022-12-08T06:05:20.960Z,2.47
2022-12-08T06:08:09.515Z,2.42
2022-12-08T06:10:57.491Z,2.34
2022-12-08T06:13:47.051Z,2.40
2022-12-08T06:16:35.019Z,2.47
2022-12-08T06:19:23.023Z,2.42
2022-12-08T06:22:11.096Z,2.44
2022-12-08T06:24:58.997Z,1.87
2022-12-08T06:27:46.896Z,2.24
2022-12-08T06:30:36.161Z,2.42
2022-12-08T06:33:24.325Z,2.35
2022-12-08T06:36:13.720Z,2.34
2022-12-08T06:39:02.004Z,2.23
2022-12-08T06:42:07.839Z,2.26
2022-12-08T06:44:55.762Z,2.20
2022-12-08T06:47:45.263Z,2.36
2022-12-08T06:50:34.960Z,2.21
2022-12-08T06:53:22.889Z,2.42
2022-12-08T06:56:11.543Z,2.36
2022-12-08T06:58:59.468Z,2.42
2022-12-08T07:01:47.511Z,2.50
2022-12-08T07:04:16.537Z,2.39
2022-12-08T07:06:44.348Z,2.28
2022-12-08T07:09:11.974Z,2.53
2022-12-08T07:11:40.040Z,2.44
2022-12-08T07:14:07.829Z,2.28
2022-12-08T07:16:35.570Z,2.49
2022-12-08T07:19:03.267Z,2.69
2022-12-08T07:21:32.304Z,2.67
2022-12-08T07:23:59.936Z,2.72
2022-12-08T07:26:27.764Z,2.37
2022-12-08T07:28:55.361Z,2.63
2022-12-08T07:31:25.102Z,2.61
2022-12-08T07:33:53.632Z,2.54
2022-12-08T07:36:21.760Z,2.51
2022-12-08T07:38:53.047Z,2.58
2022-12-08T07:41:23.582Z,2.55
2022-12-08T07:43:51.839Z,2.40
2022-12-08T07:46:22.066Z,2.65
2022-12-08T07:48:49.839Z,2.83
2022-12-08T07:51:18.825Z,2.72
2022-12-08T07:53:53.435Z,2.72
2022-12-08T07:56:23.579Z,2.76
2022-12-08T07:58:51.253Z,2.91
2022-12-08T08:01:23.407Z,2.80
2022-12-08T08:03:51.288Z,2.79
2022-12-08T08:06:19.037Z,2.77
2022-12-08T08:08:46.779Z,2.83
2022-12-08T08:11:20.909Z,2.63
2022-12-08T08:13:50.951Z,2.78
2022-12-08T08:16:19.854Z,2.63
2022-12-08T08:18:49.036Z,2.94
2022-12-08T08:21:43.976Z,2.83
2022-12-08T08:24:05.106Z,3.08
2022-12-08T08:26:32.814Z,3.16
2022-12-08T08:29:01.777Z,3.22
2022-12-08T08:31:29.707Z,3.19
2022-12-08T08:33:57.954Z,3.23
2022-12-08T08:36:25.588Z,3.13
2022-12-08T08:38:53.420Z,3.13
2022-12-08T08:41:21.063Z,3.10
2022-12-08T08:43:48.695Z,3.12
2022-12-08T08:46:17.697Z,2.91
2022-12-08T08:48:45.653Z,3.01
2022-12-08T08:51:15.598Z,3.24
2022-12-08T08:53:44.219Z,3.21
2022-12-08T08:56:13.344Z,3.31
2022-12-08T08:58:41.252Z,3.43
2022-12-08T09:01:09.178Z,3.36
2022-12-08T09:03:38.152Z,3.44
2022-12-08T09:06:06.019Z,3.36
2022-12-08T09:08:33.826Z,3.47
2022-12-08T09:11:01.521Z,3.40
2022-12-08T09:13:29.205Z,3.63
2022-12-08T09:15:56.948Z,3.72
2022-12-08T09:18:24.661Z,3.63
2022-12-08T09:20:54.581Z,3.58
2022-12-08T09:23:22.304Z,3.49
2022-12-08T09:25:50.267Z,3.43
2022-12-08T09:28:17.939Z,3.37
2022-12-08T09:30:45.653Z,3.64
2022-12-08T09:33:13.384Z,3.50
2022-12-08T09:35:41.097Z,3.62
2022-12-08T09:38:10.089Z,3.64
2022-12-08T09:40:43.123Z,3.86
2022-12-08T09:43:24.828Z,3.74
2022-12-08T09:45:53.236Z,3.80
2022-12-08T09:48:24.409Z,3.94
2022-12-08T09:50:55.998Z,3.59
2022-12-08T09:53:35.358Z,3.95
2022-12-08T09:56:07.766Z,4.05
2022-12-08T09:58:45.983Z,4.04
2022-12-08T10:01:14.237Z,3.97
2022-12-08T10:03:43.215Z,3.93
2022-12-08T10:06:20.209Z,4.26
2022-12-08T10:08:59.703Z,4.11
2022-12-08T10:11:33.277Z,4.15
2022-12-08T10:14:14.653Z,4.15
2022-12-08T10:16:47.036Z,4.20
2022-12-08T10:19:19.616Z,4.15
2022-12-08T10:21:48.110Z,4.21
2022-12-08T10:24:26.884Z,4.20
2022-12-08T10:26:56.207Z,4.12
2022-12-08T10:29:23.832Z,4.15
2022-12-08T10:31:51.571Z,4.11
2022-12-08T10:34:23.124Z,4.24
2022-12-08T10:36:52.895Z,4.10
2022-12-08T10:39:37.127Z,4.23
2022-12-08T10:42:10.917Z,4.37
2022-12-08T10:44:54.131Z,4.45
2022-12-08T10:47:23.062Z,4.35
2022-12-08T10:50:08.561Z,4.47
2022-12-08T10:52:39.139Z,4.74
2022-12-08T10:55:17.051Z,4.57
2022-12-08T10:57:53.023Z,4.68
2022-12-08T11:00:23.036Z,4.91
2022-12-08T11:02:56.088Z,4.55
2022-12-08T11:05:27.552Z,4.78
2022-12-08T11:07:56.643Z,4.85
2022-12-08T11:10:34.233Z,4.81
2022-12-08T11:13:04.557Z,4.82
2022-12-08T11:15:37.345Z,4.82
2022-12-08T11:18:19.562Z,4.70
2022-12-08T11:20:47.216Z,4.73
2022-12-08T11:23:23.246Z,4.11
2022-12-08T11:25:54.735Z,4.72
2022-12-08T11:28:25.097Z,4.16
2022-12-08T11:30:58.273Z,4.86
2022-12-08T11:33:26.944Z,4.75
2022-12-08T11:36:01.352Z,4.73
2022-12-08T11:38:29.651Z,4.82
2022-12-08T11:41:02.728Z,4.80
2022-12-08T11:43:41.700Z,4.99
2022-12-08T11:46:16.193Z,4.79
2022-12-08T11:48:50.988Z,4.43
2022-12-08T11:51:22.726Z,4.72
2022-12-08T11:54:06.187Z,5.01
2022-12-08T11:56:39.349Z,5.04
2022-12-08T11:59:14.478Z,5.05
2022-12-08T12:01:42.819Z,5.13
2022-12-08T12:04:19.317Z,5.04
2022-12-08T12:07:26.588Z,4.84
2022-12-08T12:10:07.481Z,5.11
2022-12-08T12:12:54.694Z,5.25
2022-12-08T12:15:43.622Z,5.07
2022-12-08T12:18:17.832Z,4.95
2022-12-08T12:20:53.504Z,5.04
2022-12-08T12:23:25.287Z,5.14
2022-12-08T12:25:57.569Z,5.17
2022-12-08T12:28:28.999Z,5.23
2022-12-08T12:31:02.827Z,5.05
2022-12-08T12:33:32.264Z,4.94
2022-12-08T12:36:04.432Z,5.01
2022-12-08T12:38:53.937Z,5.18
2022-12-08T12:41:25.947Z,5.22
2022-12-08T12:44:24.530Z,5.14
2022-12-08T12:46:58.700Z,5.14
2022-12-08T12:49:52.737Z,5.23
2022-12-08T12:52:40.924Z,5.16
2022-12-08T12:55:26.623Z,5.11
2022-12-08T12:57:56.522Z,5.04
2022-12-08T13:00:28.570Z,5.13
2022-12-08T13:02:58.659Z,5.03
2022-12-08T13:05:28.419Z,5.04
2022-12-08T13:07:59.295Z,5.05
2022-12-08T13:10:30.641Z,4.98
2022-12-08T13:13:17.581Z,5.02
2022-12-08T13:15:52.638Z,5.03
2022-12-08T13:18:22.449Z,5.04
2022-12-08T13:20:54.048Z,4.89
2022-12-08T13:23:44.072Z,4.91
2022-12-08T13:26:29.537Z,4.94
2022-12-08T13:29:16.097Z,4.91
2022-12-08T13:31:50.985Z,5.00
2022-12-08T13:34:36.689Z,4.90
2022-12-08T13:37:21.626Z,5.00
2022-12-08T13:39:54.513Z,5.06
2022-12-08T13:42:29.181Z,4.79
2022-12-08T13:48:21.792Z,4.83
2022-12-08T13:59:28.355Z,4.94
2022-12-08T14:01:58.308Z,4.81
2022-12-08T14:04:47.904Z,4.64
2022-12-08T14:07:16.585Z,4.51
2022-12-08T14:09:44.584Z,4.60
2022-12-08T14:12:20.786Z,4.59
2022-12-08T14:15:03.162Z,4.56
2022-12-08T14:17:31.762Z,4.40
2022-12-08T14:20:14.953Z,4.43
2022-12-08T14:22:42.992Z,4.44
2022-12-08T14:25:15.808Z,4.41
2022-12-08T14:27:44.265Z,4.34
2022-12-08T14:30:20.972Z,4.12
2022-12-08T14:32:50.954Z,4.34
2022-12-08T14:35:25.616Z,4.33
2022-12-08T14:37:57.571Z,4.38
2022-12-08T14:40:28.767Z,4.24
2022-12-08T14:43:13.626Z,4.28
2022-12-08T14:45:53.150Z,4.40
2022-12-08T14:48:26.432Z,4.10
2022-12-08T14:51:06.415Z,3.99
2022-12-08T14:53:40.549Z,3.91
2022-12-08T14:56:15.250Z,3.91
2022-12-08T14:58:43.150Z,4.07
2022-12-08T15:01:14.977Z,4.15
2022-12-08T15:03:45.912Z,3.82
2022-12-08T15:06:22.155Z,3.95
2022-12-08T15:08:56.228Z,4.09
2022-12-08T15:11:35.711Z,4.15
2022-12-08T15:14:04.137Z,3.99
2022-12-08T15:16:39.775Z,3.94
2022-12-08T15:19:23.213Z,3.89
2022-12-08T15:21:52.426Z,4.10
2022-12-08T15:24:22.634Z,3.97
2022-12-08T15:26:54.168Z,3.88
2022-12-08T15:29:23.768Z,3.88
2022-12-08T15:31:53.451Z,3.32
2022-12-08T15:34:21.952Z,3.17
2022-12-08T15:36:53.096Z,3.74
2022-12-08T15:39:33.361Z,3.60
2022-12-08T15:42:02.617Z,3.62
2022-12-08T15:44:32.538Z,3.84
2022-12-08T15:47:01.316Z,3.96
2022-12-08T15:49:29.297Z,3.86
2022-12-08T15:52:10.680Z,3.84
2022-12-08T15:54:39.870Z,3.94
2022-12-08T15:57:19.470Z,3.95
2022-12-08T15:59:53.624Z,3.91
2022-12-08T16:02:23.101Z,3.94
2022-12-08T16:07:42.585Z,3.88
2022-12-08T16:10:17.220Z,3.91
2022-12-08T16:15:59.113Z,3.83
2022-12-08T16:18:30.853Z,3.74
2022-12-08T16:23:48.775Z,3.88
2022-12-08T16:29:07.971Z,3.71
2022-12-08T16:31:36.065Z,3.72
2022-12-08T16:34:03.943Z,3.80
2022-12-08T16:36:31.896Z,3.73
2022-12-08T16:39:01.025Z,3.79
2022-12-08T16:41:46.309Z,3.76
2022-12-08T16:44:14.224Z,3.78
2022-12-08T16:46:41.979Z,3.76
2022-12-08T16:49:10.330Z,3.73
2022-12-08T16:51:38.125Z,3.75
2022-12-08T16:54:07.372Z,3.74
2022-12-08T16:56:35.140Z,3.73
2022-12-08T16:59:03.073Z,3.81
2022-12-08T17:01:31.088Z,3.79
2022-12-08T17:04:29.750Z,3.76
2022-12-08T17:06:46.651Z,3.71
2022-12-08T17:09:15.740Z,3.57
2022-12-08T17:11:44.079Z,3.80
2022-12-08T17:14:12.450Z,3.84
2022-12-08T17:16:40.791Z,3.89
2022-12-08T17:19:08.777Z,3.85
2022-12-08T17:21:36.744Z,3.77
2022-12-08T17:24:05.140Z,3.83
2022-12-08T17:26:34.454Z,3.89
2022-12-08T17:29:03.313Z,3.78
2022-12-08T17:31:32.449Z,3.60
2022-12-08T17:34:01.073Z,3.64
2022-12-08T17:36:28.792Z,3.85
2022-12-08T17:38:56.765Z,3.74
2022-12-08T17:41:24.538Z,3.61
2022-12-08T17:43:53.636Z,3.52
2022-12-08T17:46:22.206Z,3.70
2022-12-08T17:48:50.383Z,3.75
2022-12-08T17:51:18.574Z,3.71
2022-12-08T17:53:46.419Z,3.73
2022-12-08T17:56:17.127Z,3.65
2022-12-08T17:58:47.594Z,3.73
2022-12-08T18:01:20.501Z,3.86
2022-12-08T18:03:48.305Z,3.84
2022-12-08T18:06:17.437Z,3.92
2022-12-08T18:08:45.264Z,3.91
2022-12-08T18:11:14.464Z,3.72
2022-12-08T18:13:42.552Z,3.73
2022-12-08T18:16:10.546Z,3.76
2022-12-08T18:18:39.721Z,3.14
2022-12-08T18:21:07.573Z,3.69
2022-12-08T18:23:35.607Z,3.57
2022-12-08T18:26:05.027Z,3.58
2022-12-08T18:28:33.301Z,3.58
2022-12-08T18:31:01.421Z,3.70
2022-12-08T18:33:29.340Z,3.73
2022-12-08T18:35:58.440Z,3.68
2022-12-08T18:38:26.308Z,3.57
2022-12-08T18:40:54.208Z,3.66
2022-12-08T18:43:22.193Z,3.66
2022-12-08T18:45:49.956Z,3.64
2022-12-08T18:48:17.706Z,3.67
2022-12-08T18:50:45.627Z,3.63
2022-12-08T18:53:14.850Z,3.61
2022-12-08T18:55:42.616Z,3.59
2022-12-08T18:58:11.160Z,3.70
2022-12-08T19:00:39.161Z,3.67
2022-12-08T19:03:07.120Z,3.64
2022-12-08T19:05:35.058Z,3.66
2022-12-08T19:08:02.953Z,3.64
2022-12-08T19:10:32.604Z,3.48
2022-12-08T19:13:00.374Z,3.62
2022-12-08T19:15:28.398Z,3.58
2022-12-08T19:17:56.215Z,3.61
2022-12-08T19:20:24.012Z,3.59
2022-12-08T19:22:51.823Z,3.62
2022-12-08T19:25:21.207Z,3.61
2022-12-08T19:27:50.312Z,3.55
2022-12-08T19:30:18.095Z,3.62
2022-12-08T19:32:45.860Z,3.65
2022-12-08T19:35:13.743Z,3.67
2022-12-08T19:37:41.517Z,3.69
2022-12-08T19:40:31.985Z,3.56
2022-12-08T19:43:18.717Z,3.44
2022-12-08T19:45:46.542Z,3.55
2022-12-08T19:48:14.480Z,3.54
2022-12-08T19:50:42.297Z,3.57
2022-12-08T19:53:13.084Z,3.60
2022-12-08T19:55:41.520Z,3.68
2022-12-08T19:58:11.127Z,3.65
2022-12-08T20:00:40.919Z,3.62
2022-12-08T20:03:09.288Z,3.57
2022-12-08T20:05:37.657Z,3.34
2022-12-08T20:08:06.046Z,3.43
2022-12-08T20:10:36.718Z,3.44
2022-12-08T20:13:22.949Z,3.32
2022-12-08T20:15:52.361Z,3.42
2022-12-08T20:18:20.181Z,3.40
2022-12-08T20:20:48.726Z,3.31
2022-12-08T20:23:17.267Z,3.25
2022-12-08T20:25:46.751Z,3.24
2022-12-08T20:28:14.699Z,3.25
2022-12-08T20:30:43.089Z,3.25
2022-12-08T20:33:13.908Z,3.17
2022-12-08T20:35:41.860Z,3.26
2022-12-08T20:38:09.750Z,2.96
2022-12-08T20:40:37.695Z,3.15
2022-12-08T20:43:05.376Z,3.15
2022-12-08T20:45:33.098Z,3.03
2022-12-08T20:48:01.037Z,3.13
2022-12-08T20:50:30.384Z,3.07
2022-12-08T20:52:58.218Z,2.99
2022-12-08T20:55:26.066Z,3.02
2022-12-08T20:57:53.778Z,2.97
2022-12-08T21:00:23.244Z,3.02
2022-12-08T21:02:56.264Z,2.91
2022-12-08T21:05:50.308Z,2.68
2022-12-08T21:08:39.406Z,2.64
2022-12-08T21:11:27.525Z,2.53
2022-12-08T21:14:15.454Z,2.50
2022-12-08T21:17:04.473Z,2.55
2022-12-08T21:19:52.839Z,2.53
2022-12-08T21:22:42.298Z,2.49
2022-12-08T21:25:30.353Z,2.27
2022-12-08T21:28:18.461Z,2.32
2022-12-08T21:31:09.868Z,2.26
2022-12-08T21:33:58.829Z,2.15
2022-12-08T21:36:46.960Z,2.20
2022-12-08T21:39:37.339Z,1.97
2022-12-08T21:42:42.851Z,2.02
2022-12-08T21:45:31.173Z,2.08
2022-12-08T21:48:19.168Z,1.94
2022-12-08T21:51:07.737Z,1.84
2022-12-08T21:53:56.025Z,1.85
2022-12-08T21:56:46.319Z,1.94
2022-12-08T21:59:34.418Z,1.96
2022-12-08T22:02:23.231Z,1.82
2022-12-08T22:05:11.985Z,1.83
2022-12-08T22:08:00.135Z,1.78
2022-12-08T22:10:48.879Z,1.72
2022-12-08T22:13:39.798Z,1.70
2022-12-08T22:16:27.812Z,1.59
2022-12-08T22:19:16.010Z,1.54
2022-12-08T22:22:04.296Z,1.65
2022-12-08T22:24:52.339Z,1.57
2022-12-08T22:27:41.037Z,1.47
2022-12-08T22:30:35.616Z,1.50
2022-12-08T22:33:26.761Z,1.54
2022-12-08T22:36:16.894Z,1.55
2022-12-08T22:39:05.321Z,1.53
2022-12-08T22:41:53.287Z,1.44
2022-12-08T22:44:41.190Z,1.33
2022-12-08T22:47:30.405Z,1.36
2022-12-08T22:50:18.479Z,1.45
2022-12-08T22:53:06.628Z,1.46
2022-12-08T22:55:54.816Z,1.37
2022-12-08T22:58:44.127Z,1.29
2022-12-08T23:01:33.787Z,1.26
2022-12-08T23:04:23.308Z,1.26
2022-12-08T23:07:12.117Z,1.23
2022-12-08T23:10:00.306Z,1.25
2022-12-08T23:12:48.683Z,1.23
2022-12-08T23:15:36.854Z,1.14
2022-12-08T23:18:24.852Z,1.20
2022-12-08T23:21:15.862Z,1.21
2022-12-08T23:24:03.810Z,1.10
2022-12-08T23:26:51.892Z,1.19
2022-12-08T23:29:39.992Z,1.07
2022-12-08T23:32:28.170Z,0.93
2022-12-08T23:35:16.194Z,0.91
2022-12-08T23:38:05.723Z,0.91
2022-12-08T23:40:54.101Z,0.78
2022-12-08T23:43:45.387Z,0.64
2022-12-08T23:46:33.635Z,0.44
2022-12-08T23:49:23.404Z,0.43
2022-12-08T23:52:12.873Z,0.36
2022-12-08T23:55:02.147Z,0.31
2022-12-08T23:57:50.151Z,0.19
